地図

経路データ

SID SEASON NUMBER BASIN SUBBASIN NAME ISO_TIME NATURE LAT LON WMO_WIND WMO_PRES WMO_AGENCY TRACK_TYPE DIST2LAND LANDFALL IFLAG USA_AGENCY USA_ATCF_ID USA_LAT USA_LON USA_RECORD USA_STATUS USA_WIND USA_PRES USA_SSHS USA_R34_NE USA_R34_SE USA_R34_SW USA_R34_NW USA_R50_NE USA_R50_SE USA_R50_SW USA_R50_NW USA_R64_NE USA_R64_SE USA_R64_SW USA_R64_NW USA_POCI USA_ROCI USA_RMW USA_EYE TOKYO_LAT TOKYO_LON TOKYO_GRADE TOKYO_WIND TOKYO_PRES TOKYO_R50_DIR TOKYO_R50_LONG TOKYO_R50_SHORT TOKYO_R30_DIR TOKYO_R30_LONG TOKYO_R30_SHORT TOKYO_LAND CMA_LAT CMA_LON CMA_CAT CMA_WIND CMA_PRES HKO_LAT HKO_LON HKO_CAT HKO_WIND HKO_PRES NEWDELHI_LAT NEWDELHI_LON NEWDELHI_GRADE NEWDELHI_WIND NEWDELHI_PRES NEWDELHI_CI NEWDELHI_DP NEWDELHI_POCI REUNION_LAT REUNION_LON REUNION_TYPE REUNION_WIND REUNION_PRES REUNION_TNUM REUNION_CI REUNION_RMW REUNION_R34_NE REUNION_R34_SE REUNION_R34_SW REUNION_R34_NW REUNION_R50_NE REUNION_R50_SE REUNION_R50_SW REUNION_R50_NW REUNION_R64_NE REUNION_R64_SE REUNION_R64_SW REUNION_R64_NW BOM_LAT BOM_LON BOM_TYPE BOM_WIND BOM_PRES BOM_TNUM BOM_CI BOM_RMW BOM_R34_NE BOM_R34_SE BOM_R34_SW BOM_R34_NW BOM_R50_NE BOM_R50_SE BOM_R50_SW BOM_R50_NW BOM_R64_NE BOM_R64_SE BOM_R64_SW BOM_R64_NW BOM_ROCI BOM_POCI BOM_EYE BOM_POS_METHOD BOM_PRES_METHOD NADI_LAT NADI_LON NADI_CAT NADI_WIND NADI_PRES WELLINGTON_LAT WELLINGTON_LON WELLINGTON_WIND WELLINGTON_PRES DS824_LAT DS824_LON DS824_STAGE DS824_WIND DS824_PRES TD9636_LAT TD9636_LON TD9636_STAGE TD9636_WIND TD9636_PRES TD9635_LAT TD9635_LON TD9635_WIND TD9635_PRES TD9635_ROCI NEUMANN_LAT NEUMANN_LON NEUMANN_CLASS NEUMANN_WIND NEUMANN_PRES MLC_LAT MLC_LON MLC_CLASS MLC_WIND MLC_PRES USA_GUST BOM_GUST BOM_GUST_PER REUNION_GUST REUNION_GUST_PER USA_SEAHGT USA_SEARAD_NE USA_SEARAD_SE USA_SEARAD_SW USA_SEARAD_NW STORM_SPEED STORM_DIR
1893247N25269 1893 39 NA GM NOT_NAMED 1893-09-04 00:00:00 TS 24.8000 -91.2000 spur-merge 423 423 _____________O -1 24.8000 -91.2000 TD 30 3 19
1893247N25269 1893 39 NA GM NOT_NAMED 1893-09-04 03:00:00 TS 24.9500 -91.1376 spur-merge 442 442 _____________P -1 24.9500 -91.1376 TD 30 3 16
1893247N25269 1893 39 NA GM NOT_NAMED 1893-09-04 06:00:00 TS 25.1000 -91.1000 spur-merge 447 435 _____________O -1 25.1000 -91.1000 TD 30 3 5
1893247N25269 1893 39 NA GM NOT_NAMED 1893-09-04 09:00:00 TS 25.2500 -91.0999 spur-merge 435 413 _____________P -1 25.2500 -91.0999 TD 30 3 0
1893247N25269 1893 39 NA GM NOT_NAMED 1893-09-04 12:00:00 TS 25.4000 -91.1000 spur-merge 413 402 _____________O -1 25.4000 -91.1000 TD 30 3 9
1893247N25269 1893 39 NA GM NOT_NAMED 1893-09-04 15:00:00 TS 25.5500 -91.0500 spur-merge 391 379 _____________P -1 25.5500 -91.0500 TD 30 3 16
1893247N25269 1893 39 NA GM NOT_NAMED 1893-09-04 18:00:00 TS 25.7000 -91.0000 spur-merge 379 368 _____________O -1 25.7000 -91.0000 TD 30 3 5
1893247N25269 1893 39 NA GM NOT_NAMED 1893-09-04 21:00:00 TS 25.8500 -90.9999 spur-merge 368 346 _____________P -1 25.8500 -90.9999 TD 32 3 0
1893247N25269 1893 39 NA GM NOT_NAMED 1893-09-05 00:00:00 TS 26.0000 -91.0000 spur-merge 346 335 _____________O -1 26.0000 -91.0000 TS 35 3 9
1893247N25269 1893 39 NA GM NOT_NAMED 1893-09-05 03:00:00 TS 26.1500 -90.9501 spur-merge 323 312 _____________P -1 26.1500 -90.9501 TS 37 3 16
1893247N25269 1893 39 NA GM NOT_NAMED 1893-09-05 06:00:00 TS 26.3000 -90.9000 spur-merge 312 301 _____________O -1 26.3000 -90.9000 TS 40 3 5
1893247N25269 1893 39 NA GM NOT_NAMED 1893-09-05 09:00:00 TS 26.4500 -90.8999 spur-merge 290 279 _____________P -1 26.4500 -90.8999 TS 42 3 0
1893247N25269 1893 39 NA GM NOT_NAMED 1893-09-05 12:00:00 TS 26.6000 -90.9000 spur-merge 279 267 _____________O -1 26.6000 -90.9000 TS 45 3 5
1893247N25269 1893 39 NA GM NOT_NAMED 1893-09-05 15:00:00 TS 26.7500 -90.8501 spur-merge 256 245 _____________P -1 26.7500 -90.8501 TS 50 3 16
1893247N25269 1893 39 NA GM NOT_NAMED 1893-09-05 18:00:00 TS 26.9000 -90.8000 spur-merge 245 234 _____________O -1 26.9000 -90.8000 TS 55 3 5
1893247N25269 1893 39 NA GM NOT_NAMED 1893-09-05 21:00:00 TS 27.0500 -90.7999 spur-merge 223 212 _____________P -1 27.0500 -90.7999 TS 60 3 0
1893247N25269 1893 39 NA GM NOT_NAMED 1893-09-06 00:00:00 TS 27.2000 -90.8000 spur-merge 212 201 _____________O -1 27.2000 -90.8000 HU 65 3 9
1893247N25269 1893 39 NA GM NOT_NAMED 1893-09-06 03:00:00 TS 27.3500 -90.7501 spur-merge 190 178 _____________P -1 27.3500 -90.7501 HU 70 3 16
1893247N25269 1893 39 NA GM NOT_NAMED 1893-09-06 06:00:00 TS 27.5000 -90.7000 spur-merge 178 167 _____________O -1 27.5000 -90.7000 HU 75 3 5
1893247N25269 1893 39 NA GM NOT_NAMED 1893-09-06 09:00:00 TS 27.6500 -90.6999 spur-merge 156 145 _____________P -1 27.6500 -90.6999 HU 80 3 0
1893247N25269 1893 39 NA GM NOT_NAMED 1893-09-06 12:00:00 TS 27.8000 -90.7000 spur-merge 145 134 _____________O -1 27.8000 -90.7000 HU 85 3 9
1893247N25269 1893 39 NA GM NOT_NAMED 1893-09-06 15:00:00 TS 27.9500 -90.6500 spur-merge 123 111 _____________P -1 27.9500 -90.6626 HU 85 3 16
1893247N25269 1893 39 NA GM NOT_NAMED 1893-09-06 18:00:00 TS 28.1000 -90.6000 spur-merge 111 _____________O -1 28.1000 -90.6000 HU 85 3 12

IBTrACS Databaseについて

本データベースは、米国NOAAが公開する1842年以降の世界の熱帯低気圧のベストトラックデータアーカイブInternational Best Track Archive for Climate Stewardship (IBTrACS)を、ウェブで閲覧しやすい形式に変換したものです。

最終更新日:2021-12-06